Data for 05/29/2009

Time Sea-Level Adjusted Pressure Absolute Pressure Temperature Relative Humidity Dew Point   
(mb) (inHg) (mb) (inHg) (C) (F) (%) (C) (F)
00:05 1021 30.15 850 25.1 14.3 57.7 44 2.2 35.9
00:10 1021 30.15 850 25.1 14.4 57.9 43 2.1 35.8
00:15 1021 30.15 850 25.1 14.4 58 43 2 35.6
00:20 1021 30.15 850 25.1 14.2 57.6 44 2.3 36.2
00:25 1021 30.15 850 25.1 14.2 57.6 43 2 35.6
00:30 1021 30.15 850 25.1 14.2 57.6 43 1.7 35.1
00:35 1021 30.15 850 25.1 14.2 57.6 42 1.7 35.1
00:40 1021 30.15 850 25.1 14.4 57.9 41 1.4 34.5
00:45 1021 30.15 850 25.1 14.7 58.4 41 1.6 34.8
00:50 1021 30.15 850 25.1 14.5 58.1 42 1.8 35.3
00:55 1021 30.15 850 25.1 14.1 57.5 43 1.8 35.3
01:00 1021 30.15 850 25.1 14.3 57.7 41 1.4 34.6
01:05 1021 30.15 850 25.1 14.5 58 42 1.9 35.4
01:10 1021 30.15 850 25.1 14.3 57.7 42 1.7 35.1
01:15 1021 30.15 850 25.1 14 57.1 44 2 35.7
01:20 1021 30.15 851 25.13 13.5 56.4 45 2.1 35.7
01:25 1021 30.15 850 25.1 13.3 56 46 2 35.5
01:30 1021 30.15 850 25.1 13.1 55.6 47 2.1 35.8
01:35 1021 30.15 851 25.13 12.9 55.3 47 2.1 35.7
01:40 1021 30.15 851 25.13 12.9 55.1 47 1.9 35.4
01:45 1021 30.15 851 25.13 12.9 55.2 46 1.6 34.9
01:50 1021 30.15 851 25.13 13.3 55.9 45 1.6 34.8
01:55 1021 30.15 851 25.13 13.5 56.3 45 1.8 35.2
02:00 1021 30.15 851 25.13 13.3 56 45 1.8 35.2
02:05 1022 30.18 851 25.13 13 55.5 47 1.9 35.4
02:10 1022 30.18 851 25.13 12.8 55 47 1.8 35.3
02:15 1022 30.18 851 25.13 12.9 55.1 46 1.6 34.8
02:20 1022 30.18 851 25.13 13 55.3 47 1.9 35.3
02:25 1022 30.18 851 25.13 12.9 55.2 48 2.3 36.2
02:30 1022 30.18 851 25.13 12.3 54.2 50 2.3 36.2
02:35 1022 30.18 851 25.13 12 53.5 52 2.3 36.2
02:40 1022 30.18 851 25.13 11.7 53 53 2.3 36.2
02:45 1022 30.18 851 25.13 11.4 52.4 53 2.1 35.8
02:50 1022 30.18 851 25.13 11.5 52.7 52 2 35.6
02:55 1022 30.18 851 25.13 11.5 52.8 53 2.4 36.2
03:00 1022 30.18 851 25.13 11.5 52.8 53 2.2 36
03:05 1022 30.18 851 25.13 11.4 52.5 54 2.5 36.5
03:10 1022 30.18 851 25.13 11 51.8 55 2.4 36.3
03:15 1022 30.18 851 25.13 10.9 51.6 56 2.6 36.6
03:20 1022 30.18 851 25.13 10.9 51.7 54 2 35.6
03:25 1022 30.18 851 25.13 11.4 52.4 52 1.9 35.4
03:30 1022 30.18 851 25.13 11.5 52.7 52 2.1 35.8
03:35 1022 30.18 851 25.13 11.5 52.6 51 1.8 35.2
03:40 1022 30.18 851 25.13 11.7 53 51 2 35.6
03:45 1022 30.18 851 25.13 11.4 52.6 52 2 35.7
03:50 1022 30.18 851 25.13 11.3 52.3 53 2.1 35.8
03:55 1022 30.18 851 25.13 11.4 52.4 52 1.9 35.4
04:00 1022 30.18 851 25.13 11.4 52.5 53 2.3 36.1
04:05 1022 30.18 851 25.13 11.1 51.9 54 2.1 35.7
04:10 1022 30.18 851 25.13 11.1 52 53 1.9 35.4
04:15 1022 30.18 851 25.13 11.4 52.6 50 1.5 34.7
04:20 1022 30.18 851 25.13 12 53.6 48 1.5 34.7
04:25 1022 30.18 851 25.13 12.1 53.7 50 1.9 35.5
04:30 1022 30.18 851 25.13 11.8 53.2 50 1.8 35.2
04:35 1022 30.18 851 25.13 11.8 53.2 50 1.7 35
04:40 1022 30.18 851 25.13 11.6 52.9 51 1.8 35.3
04:45 1022 30.18 851 25.13 11.8 53.2 50 1.7 35
04:50 1022 30.18 851 25.13 11.8 53.2 50 1.8 35.2
04:55 1022 30.18 851 25.13 11.6 53 52 2.1 35.7
05:00 1022 30.18 851 25.13 11.4 52.6 52 1.9 35.4
05:05 1022 30.18 852 25.16 11.2 52.2 52 1.9 35.5
05:10 1022 30.18 852 25.16 11.2 52.2 52 1.9 35.3
05:15 1022 30.18 852 25.16 11.3 52.4 52 1.8 35.2
05:20 1022 30.18 852 25.16 11.4 52.5 52 1.9 35.3
05:25 1022 30.18 852 25.16 11.3 52.4 52 1.9 35.5
05:30 1022 30.18 852 25.16 11.1 52 54 2.1 35.7
05:35 1022 30.18 852 25.16 10.8 51.5 54 1.9 35.3
05:40 1023 30.21 852 25.16 10.8 51.4 55 2 35.7
05:45 1023 30.21 852 25.16 10.6 51 56 2.2 36
05:50 1023 30.21 852 25.16 10.7 51.3 54 1.7 35.1
05:55 1023 30.21 852 25.16 10.9 51.6 55 2.3 36.2
06:00 1023 30.21 852 25.16 10.4 50.7 57 2.2 36
06:05 1023 30.21 852 25.16 10 50 58 2 35.6
06:10 1023 30.21 852 25.16 10.3 50.5 55 1.7 35.1
06:15 1023 30.21 852 25.16 10.8 51.4 54 2 35.5
06:20 1023 30.21 852 25.16 10.8 51.4 56 2.4 36.3
06:25 1023 30.21 852 25.16 10.6 51 56 2.2 35.9
06:30 1023 30.21 852 25.16 10.5 50.8 55 1.9 35.4
06:35 1023 30.21 852 25.16 11 51.7 54 2.2 35.9
06:40 1023 30.21 852 25.16 11.1 51.9 55 2.4 36.4
06:45 1023 30.21 852 25.16 11.1 51.9 55 2.4 36.4
06:50 1023 30.21 852 25.16 11.2 52.1 55 2.5 36.4
06:55 1023 30.21 852 25.16 11.4 52.5 54 2.4 36.3
07:00 1023 30.21 852 25.16 11.6 52.9 52 2.2 36
07:05 1023 30.21 852 25.16 12 53.7 52 2.6 36.7
07:10 1023 30.21 852 25.16 12.5 54.5 51 2.7 36.8
07:15 1023 30.21 852 25.16 12.6 54.6 51 2.8 37
07:20 1023 30.21 852 25.16 12.6 54.7 51 2.7 36.8
07:25 1023 30.21 852 25.16 13 55.4 49 2.7 36.9
07:30 1023 30.21 852 25.16 13.5 56.2 48 2.7 36.9
07:35 1023 30.21 852 25.16 14.2 57.5 44 2.3 36.1
07:40 1023 30.21 852 25.16 14.3 57.7 45 2.7 36.8
07:45 1023 30.21 852 25.16 15.2 59.4 43 2.7 36.8
07:50 1023 30.21 852 25.16 15.9 60.6 43 3.3 38
07:55 1023 30.21 852 25.16 15.5 59.8 44 3.3 37.9
08:00 1023 30.21 852 25.16 15.4 59.7 44 3.2 37.7
08:05 1023 30.21 853 25.19 15.7 60.2 42 2.8 37.1
08:10 1023 30.21 853 25.19 16.1 61 43 3.7 38.7
08:15 1023 30.21 853 25.19 16 60.8 43 3.6 38.5
08:20 1023 30.21 853 25.19 16.4 61.5 43 3.8 38.9
08:25 1023 30.21 853 25.19 16.8 62.2 40 3.3 38
08:30 1023 30.21 853 25.19 17.6 63.7 39 3.4 38.2
08:35 1023 30.21 853 25.19 18.1 64.6 36 2.8 37.1
08:40 1023 30.21 853 25.19 18 64.4 36 3 37.4
08:45 1023 30.21 853 25.19 17.8 64.1 37 3.2 37.8
08:50 1023 30.21 853 25.19 17.8 64 34 1.7 35.1
08:55 1023 30.21 853 25.19 18.6 65.4 32 1.6 34.9
09:00 1023 30.21 853 25.19 19.4 67 30 1.8 35.2
09:05 1024 30.24 853 25.19 20 68.1 31 2.6 36.7
09:10 1024 30.24 853 25.19 20.5 68.9 31 2.8 37.1
09:15 1023 30.21 853 25.19 20.6 69.1 31 3.3 37.9
09:20 1023 30.21 853 25.19 20.4 68.7 31 2.8 37.1
09:25 1023 30.21 853 25.19 20.3 68.6 30 2.5 36.5
09:30 1023 30.21 853 25.19 20.6 69.1 30 2.4 36.3
09:35 1023 30.21 853 25.19 19.9 67.7 30 1.8 35.3
09:40 1023 30.21 853 25.19 19.1 66.3 32 2.1 35.7
09:45 1023 30.21 853 25.19 19.3 66.8 32 2.2 35.9
09:50 1023 30.21 853 25.19 20.3 68.5 30 2.1 35.7
09:55 1023 30.21 853 25.19 21.1 70 28 2.1 35.8
10:00 1023 30.21 853 25.19 21.2 70.1 29 2.8 37.1
10:05 1023 30.21 852 25.16 20.2 68.4 31 2.8 37
10:10 1023 30.21 852 25.16 20.6 69 29 2.3 36.2
10:15 1023 30.21 852 25.16 21.2 70.2 29 2.7 36.9
10:20 1023 30.21 852 25.16 21.6 70.8 28 2.7 36.8
10:25 1023 30.21 852 25.16 20.9 69.5 28 1.8 35.2
10:30 1023 30.21 852 25.16 21.5 70.6 28 2.6 36.6
10:35 1023 30.21 852 25.16 21.8 71.2 28 2.5 36.4
10:40 1023 30.21 852 25.16 21.4 70.4 27 1.9 35.4
10:45 1023 30.21 852 25.16 21 69.7 28 1.8 35.3
10:50 1023 30.21 852 25.16 21.3 70.4 26 1.3 34.4
10:55 1023 30.21 852 25.16 22.5 72.5 25 1.7 35.1
11:00 1023 30.21 852 25.16 23.2 73.8 22 0.7 33.3
11:05 1023 30.21 852 25.16 23.1 73.5 23 1.1 34
11:10 1023 30.21 852 25.16 22 71.5 23 -0.1 31.9
11:15 1023 30.21 852 25.16 21.9 71.5 25 1.2 34.2
11:20 1023 30.21 852 25.16 22.7 72.9 24 1.6 34.9
11:25 1023 30.21 852 25.16 22.3 72.1 26 2.3 36.1
11:30 1023 30.21 852 25.16 22.6 72.7 24 1.4 34.5
11:35 1023 30.21 852 25.16 22.5 72.6 24 1.3 34.3
11:40 1023 30.21 852 25.16 23.2 73.8 22 0.8 33.4
11:45 1023 30.21 852 25.16 22.7 72.9 24 1.6 34.8
11:50 1023 30.21 852 25.16 22.6 72.7 24 1 33.8
11:55 1023 30.21 852 25.16 23.2 73.8 24 1.5 34.7
12:00 1023 30.21 852 25.16 23.3 73.9 23 1.5 34.6
12:05 1023 30.21 852 25.16 22.6 72.7 24 1.1 33.9
12:10 1023 30.21 852 25.16 23.1 73.5 23 0.9 33.7
12:15 1023 30.21 852 25.16 24.3 75.7 22 1.2 34.2
12:20 1023 30.21 852 25.16 23.8 74.9 22 1.2 34.1
12:25 1023 30.21 852 25.16 24.6 76.3 20 0.4 32.7
12:30 1023 30.21 852 25.16 24.7 76.5 20 0.5 32.9
12:35 1023 30.21 852 25.16 23.6 74.5 21 -0 31.9
12:40 1023 30.21 852 25.16 24.2 75.6 21 0.9 33.7
12:45 1023 30.21 852 25.16 24.9 76.8 19 -0.1 31.8
12:50 1023 30.21 852 25.16 25.4 77.7 20 0.8 33.4
12:55 1023 30.21 852 25.16 24.1 75.4 22 1.1 34
13:00 1022 30.18 852 25.16 24.1 75.4 19 -0.7 30.7
13:05 1022 30.18 852 25.16 25 77 18 -0.6 30.8
13:10 1022 30.18 852 25.16 25.6 78 18 -0 32
13:15 1022 30.18 852 25.16 25.4 77.8 20 0.8 33.4
13:20 1022 30.18 852 25.16 25.7 78.2 20 1.1 34
13:25 1022 30.18 852 25.16 25.8 78.5 19 0.5 33
13:30 1022 30.18 852 25.16 26.4 79.6 18 0.6 33.1
13:35 1022 30.18 851 25.13 26.2 79.2 18 -0.1 31.9
13:40 1022 30.18 851 25.13 25.7 78.3 18 -0.4 31.3
13:45 1022 30.18 851 25.13 25.9 78.6 15 -2.3 27.9
13:50 1022 30.18 851 25.13 25.1 77.2 16 -1.8 28.7
13:55 1022 30.18 851 25.13 25.8 78.5 14 -3.3 26
14:00 1022 30.18 851 25.13 25.8 78.5 15 -2.5 27.5
14:05 1022 30.18 851 25.13 26.6 79.9 17 -0.6 30.9
14:10 1022 30.18 851 25.13 26.5 79.8 16 -0.7 30.7
14:15 1022 30.18 851 25.13 25.8 78.4 17 -1.1 30
14:20 1022 30.18 851 25.13 26.1 79 15 -1.9 28.6
14:25 1022 30.18 851 25.13 25.6 78.1 17 -0.7 30.8
14:30 1022 30.18 851 25.13 25.5 78 16 -2.2 28.1
14:35 1021 30.15 851 25.13 25.9 78.6 16 -1.4 29.5
14:40 1021 30.15 851 25.13 26.1 79 14 -3.2 26.2
14:45 1021 30.15 851 25.13 26.1 78.9 14 -2.9 26.8
14:50 1021 30.15 851 25.13 26.4 79.6 14 -2.7 27.1
14:55 1021 30.15 851 25.13 26.5 79.8 15 -2.2 28
15:00 1021 30.15 851 25.13 27.5 81.4 14 -1.9 28.6
15:05 1021 30.15 851 25.13 26.5 79.7 16 -0.8 30.5
15:10 1021 30.15 850 25.1 26.6 79.8 15 -1.6 29.1
15:15 1021 30.15 850 25.1 27.2 81 15 -1.4 29.5
15:20 1021 30.15 850 25.1 26.5 79.7 17 -0.1 31.8
15:25 1021 30.15 850 25.1 26.2 79.1 16 -1.1 30
15:30 1021 30.15 850 25.1 25.3 77.6 17 -1.5 29.3
15:35 1021 30.15 850 25.1 25.7 78.2 17 -0.8 30.6
15:40 1021 30.15 850 25.1 25.9 78.7 15 -2 28.4
15:45 1021 30.15 850 25.1 26.5 79.6 17 -0.6 31
15:50 1021 30.15 850 25.1 25.8 78.4 16 -1.4 29.4
15:55 1021 30.15 850 25.1 25.6 78 17 -1.4 29.5
16:00 1021 30.15 850 25.1 25.4 77.8 17 -1.2 29.8
16:05 1021 30.15 850 25.1 26 78.9 15 -2.1 28.1
16:10 1021 30.15 850 25.1 25.6 78.2 16 -1.9 28.6
16:15 1021 30.15 850 25.1 25.9 78.7 16 -1.9 28.6
16:20 1020 30.12 850 25.1 25.7 78.2 16 -1.6 29.1
16:25 1020 30.12 850 25.1 25.3 77.6 17 -1.3 29.7
16:30 1020 30.12 850 25.1 26.3 79.3 16 -1.1 30
16:35 1020 30.12 850 25.1 25.3 77.6 17 -1.3 29.6
16:40 1020 30.12 849 25.07 26 78.7 16 -1.2 29.9
16:45 1020 30.12 849 25.07 26.7 80 15 -1.4 29.5
16:50 1020 30.12 849 25.07 27.1 80.8 15 -1.4 29.4
16:55 1020 30.12 849 25.07 26.3 79.4 16 -1.4 29.4
17:00 1020 30.12 849 25.07 26.9 80.4 15 -1.7 29
17:05 1020 30.12 849 25.07 27.4 81.2 15 -1.6 29.2
17:10 1020 30.12 849 25.07 27.6 81.6 14 -1.7 28.9
17:15 1020 30.12 849 25.07 27.9 82.1 15 -1.3 29.7
17:20 1020 30.12 849 25.07 27.1 80.8 15 -1.1 30.1
17:25 1020 30.12 849 25.07 26.9 80.4 15 -1.6 29.1
17:30 1020 30.12 849 25.07 26.6 79.8 16 -1.3 29.7
17:35 1020 30.12 849 25.07 26.3 79.4 16 -1.5 29.3
17:40 1020 30.12 849 25.07 26.7 80 15 -2 28.4
17:45 1020 30.12 849 25.07 26.7 80 16 -1 30.2
17:50 1020 30.12 849 25.07 26.6 79.8 15 -1.9 28.6
17:55 1020 30.12 849 25.07 26.3 79.3 15 -2 28.5
18:00 1020 30.12 849 25.07 26.6 79.9 16 -1.3 29.7
18:05 1020 30.12 849 25.07 26.1 78.9 16 -1.2 29.9
18:10 1020 30.12 849 25.07 26.7 80 15 -1.8 28.8
18:15 1020 30.12 849 25.07 27.1 80.8 16 -0.8 30.6
18:20 1020 30.12 849 25.07 26.8 80.3 16 -1.2 29.9
18:25 1020 30.12 849 25.07 26.4 79.5 16 -1.5 29.2
18:30 1020 30.12 849 25.07 26.3 79.3 16 -1.3 29.7
18:35 1020 30.12 849 25.07 26 78.8 18 -0 31.9
18:40 1020 30.12 849 25.07 26.1 78.9 17 -0.6 31
18:45 1020 30.12 849 25.07 26.3 79.3 15 -1.9 28.6
18:50 1020 30.12 849 25.07 26 78.8 17 -0.4 31.4
18:55 1020 30.12 849 25.07 25.5 78 18 -0.6 31
19:00 1020 30.12 849 25.07 25.2 77.4 18 -0.9 30.5
19:05 1020 30.12 849 25.07 25.1 77.1 18 -0.8 30.5
19:10 1020 30.12 849 25.07 25 76.9 19 -0.3 31.5
19:15 1020 30.12 849 25.07 24.9 76.9 19 -0.3 31.4
19:20 1020 30.12 849 25.07 24.9 76.8 20 0.6 33
19:25 1020 30.12 849 25.07 24.9 76.9 24 3.1 37.5
19:30 1021 30.15 850 25.1 23.1 73.7 30 5 41.1
19:35 1021 30.15 850 25.1 21.5 70.7 33 4.6 40.3
19:40 1021 30.15 850 25.1 21 69.7 34 4.5 40.1
19:45 1021 30.15 850 25.1 20.7 69.2 34 4.4 40
19:50 1021 30.15 850 25.1 20.6 69 35 4.8 40.6
19:55 1021 30.15 850 25.1 20.4 68.8 35 4.6 40.2
20:00 1022 30.18 851 25.13 20.4 68.8 35 4.5 40.2
20:05 1022 30.18 851 25.13 20.4 68.7 36 4.8 40.6
20:10 1022 30.18 851 25.13 20.1 68.2 38 5.3 41.6
20:15 1022 30.18 851 25.13 20 68.1 38 5.4 41.8
20:20 1022 30.18 851 25.13 20 68 39 5.8 42.4
20:25 1022 30.18 851 25.13 19.9 67.7 39 5.8 42.4
20:30 1022 30.18 852 25.16 19.8 67.6 40 6.1 42.9
20:35 1022 30.18 851 25.13 19.6 67.2 41 6 42.7
20:40 1022 30.18 851 25.13 19.5 67 40 5.8 42.4
20:45 1022 30.18 851 25.13 19.4 66.8 41 5.8 42.4
20:50 1022 30.18 851 25.13 19.3 66.8 40 5.7 42.2
20:55 1022 30.18 851 25.13 19.2 66.6 41 5.9 42.6
21:00 1022 30.18 851 25.13 18.9 66.1 43 6.2 43.1
21:05 1022 30.18 851 25.13 18.7 65.7 43 6 42.8
21:10 1022 30.18 851 25.13 18.7 65.6 44 6.2 43.2
21:15 1022 30.18 851 25.13 18.6 65.4 44 6.1 43
21:20 1022 30.18 851 25.13 18.5 65.2 45 6.4 43.6
21:25 1022 30.18 851 25.13 18.2 64.8 46 6.5 43.8
21:30 1022 30.18 851 25.13 18.2 64.7 48 7 44.6
21:35 1022 30.18 851 25.13 18.3 64.9 45 6.3 43.3
21:40 1022 30.18 851 25.13 18 64.5 47 6.6 43.8
21:45 1022 30.18 851 25.13 17.8 64.1 46 6 42.9
21:50 1022 30.18 851 25.13 18.1 64.5 45 6.1 43
21:55 1022 30.18 851 25.13 18.2 64.7 45 6 42.8
22:00 1022 30.18 851 25.13 18.3 65 49 7.6 45.6
22:05 1022 30.18 851 25.13 18.4 65 43 5.8 42.5
22:10 1021 30.15 851 25.13 18 64.4 46 6.3 43.4
22:15 1021 30.15 850 25.1 17.8 64.1 46 6.2 43.1
22:20 1021 30.15 850 25.1 17.8 64 45 5.9 42.5
22:25 1021 30.15 850 25.1 17.8 64.1 43 5.2 41.3
22:30 1021 30.15 850 25.1 18.1 64.5 42 5.1 41.3
22:35 1021 30.15 850 25.1 18 64.3 44 5.7 42.2
22:40 1021 30.15 850 25.1 17.7 63.9 44 5.6 42
22:45 1021 30.15 850 25.1 17.8 64 42 4.9 40.8
22:50 1021 30.15 850 25.1 18.1 64.5 42 5.2 41.3
22:55 1021 30.15 850 25.1 17.9 64.3 45 6.1 42.9
23:00 1021 30.15 850 25.1 17.5 63.4 46 5.9 42.7
23:05 1021 30.15 850 25.1 17.4 63.3 46 5.8 42.5
23:10 1021 30.15 850 25.1 17.4 63.4 46 5.7 42.3
23:15 1021 30.15 850 25.1 17.5 63.5 46 6 42.7
23:20 1021 30.15 850 25.1 17.5 63.6 45 5.5 41.9
23:25 1021 30.15 850 25.1 17.6 63.6 45 5.6 42.1
23:30 1021 30.15 850 25.1 17.6 63.6 48 6.6 43.8
23:35 1021 30.15 850 25.1 17.7 63.8 45 5.7 42.3
23:40 1021 30.15 850 25.1 17.6 63.6 45 5.7 42.2
23:45 1021 30.15 850 25.1 17.4 63.3 46 5.8 42.4
23:50 1021 30.15 850 25.1 17.2 62.9 46 5.7 42.2
23:55 1021 30.15 850 25.1 17.1 62.7 47 5.7 42.3
24:00 1017 30.03 846 24.98 17.1 62.8 52 7.4 45.3